createdAt,value
2019-05-15T00:01:35.256Z,94.97
2019-05-15T00:04:09.333Z,94.65
2019-05-15T00:06:43.856Z,97.10
2019-05-15T00:09:18.883Z,98.90
2019-05-15T00:11:50.846Z,98.59
2019-05-15T00:14:23.627Z,99.27
2019-05-15T00:16:58.548Z,98.29
2019-05-15T00:19:30.871Z,98.49
2019-05-15T00:22:03.867Z,99.15
2019-05-15T00:24:38.160Z,98.78
2019-05-15T00:27:11.416Z,97.62
2019-05-15T00:29:43.392Z,98.36
2019-05-15T00:32:18.474Z,98.43
2019-05-15T00:34:50.855Z,99.60
2019-05-15T00:37:23.822Z,98.27
2019-05-15T00:39:59.185Z,96.69
2019-05-15T00:42:32.239Z,96.78
2019-05-15T00:45:05.401Z,95.01
2019-05-15T00:47:39.704Z,94.18
2019-05-15T00:50:13.470Z,94.59
2019-05-15T00:52:48.308Z,95.45
2019-05-15T00:55:22.367Z,94.42
2019-05-15T00:57:55.593Z,94.38
2019-05-15T01:00:43.518Z,94.60
2019-05-15T01:03:18.081Z,93.28
2019-05-15T01:05:50.558Z,95.57
2019-05-15T01:08:23.515Z,94.21
2019-05-15T01:10:58.057Z,94.98
2019-05-15T01:13:30.188Z,95.96
2019-05-15T01:16:03.149Z,95.04
2019-05-15T01:18:35.279Z,95.22
2019-05-15T01:21:08.421Z,93.51
2019-05-15T01:23:40.948Z,94.43
2019-05-15T01:26:13.576Z,93.48
2019-05-15T01:28:49.252Z,92.10
2019-05-15T01:31:21.045Z,93.43
2019-05-15T01:33:53.363Z,93.75
2019-05-15T01:36:25.069Z,92.48
2019-05-15T01:38:58.454Z,92.06
2019-05-15T01:41:31.437Z,91.13
2019-05-15T01:44:03.781Z,92.90
2019-05-15T01:46:35.881Z,92.57
2019-05-15T01:49:08.401Z,93.18
2019-05-15T01:51:40.730Z,92.28
2019-05-15T01:54:13.154Z,92.49
2019-05-15T01:56:45.930Z,92.81
2019-05-15T01:59:18.963Z,92.33
2019-05-15T02:01:51.126Z,92.75
2019-05-15T02:04:23.012Z,93.16
2019-05-15T02:06:55.844Z,93.73
2019-05-15T02:09:28.857Z,94.68
2019-05-15T02:12:01.897Z,95.32
2019-05-15T02:14:34.656Z,95.51
2019-05-15T02:17:08.463Z,94.45
2019-05-15T02:19:42.006Z,96.77
2019-05-15T02:22:13.121Z,95.69
2019-05-15T02:24:45.367Z,94.37
2019-05-15T02:27:18.718Z,95.02
2019-05-15T02:29:52.109Z,93.77
2019-05-15T02:32:24.184Z,94.34
2019-05-15T02:34:58.982Z,98.88
2019-05-15T02:37:31.857Z,97.77
2019-05-15T02:40:04.315Z,98.21
2019-05-15T02:42:39.949Z,97.61
2019-05-15T02:45:12.068Z,97.39
2019-05-15T02:47:45.149Z,98.49
2019-05-15T02:50:20.443Z,98.85
2019-05-15T02:52:51.813Z,100.00
2019-05-15T02:55:24.594Z,100.00
2019-05-15T02:57:59.065Z,100.00
2019-05-15T03:00:41.848Z,100.00
2019-05-15T03:03:09.168Z,100.00
2019-05-15T03:05:41.139Z,98.93
2019-05-15T03:08:13.476Z,98.67
2019-05-15T03:10:49.371Z,100.00
2019-05-15T03:13:20.395Z,99.83
2019-05-15T03:15:53.152Z,100.00
2019-05-15T03:18:28.685Z,100.00
2019-05-15T03:21:00.732Z,100.00
2019-05-15T03:23:34.084Z,100.00
2019-05-15T03:26:08.918Z,100.00
2019-05-15T03:28:41.570Z,100.00
2019-05-15T03:31:35.924Z,100.00
2019-05-15T03:33:53.789Z,100.00
2019-05-15T03:36:24.615Z,100.00
2019-05-15T03:38:58.647Z,100.00
2019-05-15T03:41:31.159Z,100.00
2019-05-15T03:44:03.955Z,100.00
2019-05-15T03:46:39.870Z,100.00
2019-05-15T03:49:11.063Z,100.00
2019-05-15T03:51:45.813Z,98.80
2019-05-15T03:54:19.041Z,98.01
2019-05-15T03:56:51.401Z,96.83
2019-05-15T03:59:24.117Z,98.36
2019-05-15T04:01:59.971Z,99.50
2019-05-15T04:04:31.294Z,99.28
2019-05-15T04:07:04.010Z,99.63
2019-05-15T04:09:38.690Z,98.60
2019-05-15T04:12:10.863Z,99.15
2019-05-15T04:14:43.999Z,99.33
2019-05-15T04:17:19.504Z,100.00
2019-05-15T04:19:50.014Z,98.95
2019-05-15T04:22:22.470Z,96.24
2019-05-15T04:24:59.002Z,98.78
2019-05-15T04:27:31.940Z,96.25
2019-05-15T04:30:04.688Z,96.67
2019-05-15T04:32:39.788Z,97.40
2019-05-15T04:35:12.234Z,97.67
2019-05-15T04:37:44.626Z,96.53
2019-05-15T04:40:19.400Z,94.67
2019-05-15T04:42:51.445Z,95.74
2019-05-15T04:45:24.217Z,94.34
2019-05-15T04:47:58.750Z,95.25
2019-05-15T04:50:31.845Z,95.92
2019-05-15T04:53:04.073Z,96.93
2019-05-15T04:55:40.076Z,94.94
2019-05-15T04:58:11.488Z,94.34
2019-05-15T05:00:52.398Z,95.18
2019-05-15T05:03:25.013Z,92.53
2019-05-15T05:05:59.098Z,94.60
2019-05-15T05:08:32.107Z,93.65
2019-05-15T05:11:04.788Z,91.14
2019-05-15T05:13:39.180Z,90.10
2019-05-15T05:16:11.651Z,90.81
2019-05-15T05:18:43.720Z,91.33
2019-05-15T05:21:18.425Z,90.20
2019-05-15T05:23:51.327Z,89.87
2019-05-15T05:26:24.110Z,89.26
2019-05-15T05:29:01.096Z,88.83
2019-05-15T05:31:30.839Z,87.68
2019-05-15T05:34:03.594Z,88.17
2019-05-15T05:36:38.444Z,87.97
2019-05-15T05:39:13.610Z,87.12
2019-05-15T05:41:45.928Z,87.57
2019-05-15T05:44:19.000Z,88.64
2019-05-15T05:46:50.735Z,86.43
2019-05-15T05:49:23.961Z,85.81
2019-05-15T05:51:58.634Z,85.33
2019-05-15T05:54:30.649Z,85.64
2019-05-15T05:57:02.731Z,84.76
2019-05-15T05:59:34.803Z,82.80
2019-05-15T06:02:08.195Z,82.01
2019-05-15T06:04:41.114Z,82.01
2019-05-15T06:07:14.521Z,81.85
2019-05-15T06:09:48.633Z,80.92
2019-05-15T06:12:21.075Z,80.50
2019-05-15T06:14:53.819Z,79.14
2019-05-15T06:17:28.062Z,78.65
2019-05-15T06:20:00.627Z,77.82
2019-05-15T06:22:33.770Z,77.28
2019-05-15T06:25:05.334Z,77.43
2019-05-15T06:27:39.132Z,76.79
2019-05-15T06:30:19.661Z,76.97
2019-05-15T06:33:01.834Z,75.89
2019-05-15T06:35:21.534Z,74.83
2019-05-15T06:37:54.347Z,74.76
2019-05-15T06:40:28.923Z,73.84
2019-05-15T06:43:01.929Z,72.18
2019-05-15T06:45:33.214Z,72.53
2019-05-15T06:48:04.965Z,70.85
2019-05-15T06:50:39.870Z,70.83
2019-05-15T06:53:12.249Z,71.36
2019-05-15T06:55:45.051Z,70.76
2019-05-15T06:58:19.135Z,69.34
2019-05-15T07:00:53.421Z,69.05
2019-05-15T07:03:29.184Z,69.20
2019-05-15T07:06:02.562Z,68.86
2019-05-15T07:08:38.327Z,68.37
2019-05-15T07:11:11.769Z,68.26
2019-05-15T07:13:44.368Z,67.52
2019-05-15T07:16:18.166Z,66.43
2019-05-15T07:18:51.017Z,66.61
2019-05-15T07:21:23.507Z,65.54
2019-05-15T07:23:58.154Z,65.85
2019-05-15T07:26:30.839Z,64.44
2019-05-15T07:29:02.948Z,64.32
2019-05-15T07:31:35.003Z,63.78
2019-05-15T07:34:08.415Z,64.09
2019-05-15T07:36:42.864Z,63.28
2019-05-15T07:39:17.995Z,63.21
2019-05-15T07:41:51.097Z,62.77
2019-05-15T07:44:23.164Z,63.02
2019-05-15T07:46:58.206Z,63.75
2019-05-15T07:49:31.384Z,63.13
2019-05-15T07:52:04.433Z,62.15
2019-05-15T07:54:38.296Z,63.51
2019-05-15T07:57:11.147Z,63.48
2019-05-15T07:59:43.662Z,61.49
2019-05-15T08:02:16.086Z,61.37
2019-05-15T08:04:48.506Z,61.12
2019-05-15T08:07:21.563Z,60.47
2019-05-15T08:09:54.033Z,60.15
2019-05-15T08:12:28.347Z,59.96
2019-05-15T08:15:01.550Z,58.95
2019-05-15T08:17:34.821Z,59.11
2019-05-15T08:20:11.389Z,58.66
2019-05-15T08:22:45.953Z,58.48
2019-05-15T08:25:30.520Z,59.37
2019-05-15T08:27:54.257Z,58.15
2019-05-15T08:30:28.873Z,57.76
2019-05-15T08:33:02.109Z,56.09
2019-05-15T08:35:34.242Z,55.65
2019-05-15T08:38:08.856Z,56.06
2019-05-15T08:40:41.454Z,55.50
2019-05-15T08:43:14.583Z,55.03
2019-05-15T08:45:45.366Z,55.56
2019-05-15T08:48:18.435Z,54.68
2019-05-15T08:50:51.576Z,54.58
2019-05-15T08:53:28.439Z,54.17
2019-05-15T08:56:01.408Z,53.87
2019-05-15T08:58:33.495Z,54.03
2019-05-15T09:01:05.580Z,53.47
2019-05-15T09:03:38.284Z,54.23
2019-05-15T09:06:10.350Z,53.52
2019-05-15T09:08:43.184Z,53.61
2019-05-15T09:11:15.612Z,52.95
2019-05-15T09:13:53.682Z,53.19
2019-05-15T09:16:24.287Z,52.39
2019-05-15T09:19:00.318Z,52.83
2019-05-15T09:21:34.285Z,53.25
2019-05-15T09:24:09.583Z,52.16
2019-05-15T09:26:43.751Z,52.02
2019-05-15T09:29:18.236Z,51.58
2019-05-15T09:31:50.795Z,52.07
2019-05-15T09:34:24.115Z,51.61
2019-05-15T09:36:59.756Z,52.02
2019-05-15T09:39:31.286Z,51.63
2019-05-15T09:42:03.723Z,51.79
2019-05-15T09:44:36.487Z,51.03
2019-05-15T09:47:09.341Z,51.75
2019-05-15T09:49:42.159Z,51.44
2019-05-15T09:52:14.887Z,51.22
2019-05-15T09:54:45.925Z,51.30
2019-05-15T09:57:18.802Z,50.52
2019-05-15T09:59:52.947Z,50.65
2019-05-15T10:02:28.405Z,50.22
2019-05-15T10:05:06.382Z,49.62
2019-05-15T10:07:36.776Z,49.88
2019-05-15T10:10:09.624Z,49.33
2019-05-15T10:12:41.603Z,50.13
2019-05-15T10:15:18.753Z,49.48
2019-05-15T10:17:51.645Z,49.50
2019-05-15T10:20:23.939Z,50.54
2019-05-15T10:22:58.870Z,48.43
2019-05-15T10:25:30.981Z,47.77
2019-05-15T10:28:03.995Z,48.34
2019-05-15T10:30:39.247Z,47.19
2019-05-15T10:33:10.996Z,47.97
2019-05-15T10:35:45.301Z,47.43
2019-05-15T10:38:19.590Z,48.96
2019-05-15T10:41:03.779Z,48.14
2019-05-15T10:43:28.762Z,47.72
2019-05-15T10:46:01.425Z,47.17
2019-05-15T10:48:33.899Z,47.24
2019-05-15T10:51:09.766Z,47.14
2019-05-15T10:53:40.478Z,46.30
2019-05-15T10:56:13.975Z,46.26
2019-05-15T10:58:50.113Z,46.28
2019-05-15T11:01:20.957Z,45.84
2019-05-15T11:03:53.419Z,44.89
2019-05-15T11:06:25.931Z,44.39
2019-05-15T11:08:58.398Z,44.69
2019-05-15T11:11:31.731Z,43.61
2019-05-15T11:14:03.969Z,43.04
2019-05-15T11:16:39.145Z,42.10
2019-05-15T11:19:10.754Z,42.29
2019-05-15T11:21:43.881Z,42.74
2019-05-15T11:24:16.485Z,42.70
2019-05-15T11:26:49.890Z,41.25
2019-05-15T11:29:21.902Z,42.64
2019-05-15T11:31:54.420Z,41.35
2019-05-15T11:34:29.017Z,41.54
2019-05-15T11:37:01.374Z,42.86
2019-05-15T11:39:32.828Z,41.84
2019-05-15T11:42:04.893Z,41.68
2019-05-15T11:44:38.821Z,41.97
2019-05-15T11:47:11.037Z,41.41
2019-05-15T11:49:44.973Z,42.02
2019-05-15T11:52:18.836Z,41.42
2019-05-15T11:54:51.426Z,41.98
2019-05-15T11:57:37.317Z,42.59
2019-05-15T12:00:00.757Z,41.03
2019-05-15T12:02:33.540Z,40.68
2019-05-15T12:05:08.945Z,40.17
2019-05-15T12:07:40.328Z,39.87
2019-05-15T12:10:13.612Z,37.61
2019-05-15T12:12:49.483Z,36.98
2019-05-15T12:15:20.943Z,37.13
2019-05-15T12:17:53.538Z,37.50
2019-05-15T12:20:28.379Z,37.73
2019-05-15T12:23:00.299Z,38.14
2019-05-15T12:25:32.911Z,38.43
2019-05-15T12:28:04.722Z,37.74
2019-05-15T12:30:40.229Z,37.28
2019-05-15T12:33:12.376Z,38.55
2019-05-15T12:35:45.365Z,38.00
2019-05-15T12:38:18.775Z,39.04
2019-05-15T13:01:25.581Z,39.78
2019-05-15T13:03:57.961Z,39.22
2019-05-15T13:06:30.727Z,40.30
2019-05-15T13:09:01.680Z,39.74
2019-05-15T13:11:34.020Z,40.65
2019-05-15T13:14:08.156Z,39.62
2019-05-15T13:16:41.138Z,39.93
2019-05-15T13:19:13.788Z,39.86
2019-05-15T13:21:51.435Z,40.96
2019-05-15T13:24:20.859Z,40.83
2019-05-15T13:26:53.586Z,41.17
2019-05-15T13:29:24.952Z,41.11
2019-05-15T13:31:58.405Z,41.27
2019-05-15T13:34:31.079Z,42.37
2019-05-15T13:37:03.493Z,42.48
2019-05-15T13:39:39.134Z,43.18
2019-05-15T13:42:11.769Z,43.70
2019-05-15T13:44:44.827Z,43.71
2019-05-15T13:47:17.741Z,43.98
2019-05-15T13:49:51.261Z,43.88
2019-05-15T13:52:23.678Z,43.67
2019-05-15T13:54:56.071Z,44.22
2019-05-15T13:57:29.807Z,43.90
2019-05-15T14:00:03.024Z,45.11
2019-05-15T14:02:35.113Z,44.36
2019-05-15T14:05:09.576Z,45.30
2019-05-15T14:07:49.775Z,45.57
2019-05-15T14:10:18.165Z,45.66
2019-05-15T14:12:50.506Z,46.08
2019-05-15T14:15:23.628Z,45.75
2019-05-15T14:17:57.775Z,45.66
2019-05-15T14:20:30.482Z,46.51
2019-05-15T14:23:02.720Z,46.64
2019-05-15T14:25:35.723Z,46.69
2019-05-15T14:28:08.791Z,46.99
2019-05-15T14:30:41.852Z,46.74
2019-05-15T14:33:14.301Z,47.41
2019-05-15T14:35:48.292Z,47.59
2019-05-15T14:38:20.665Z,48.53
2019-05-15T14:40:53.468Z,49.01
2019-05-15T14:43:25.259Z,48.38
2019-05-15T14:45:58.692Z,48.69
2019-05-15T14:48:31.232Z,49.46
2019-05-15T14:51:03.558Z,49.60
2019-05-15T14:53:38.389Z,49.37
2019-05-15T14:56:09.996Z,49.38
2019-05-15T14:58:43.538Z,49.50
2019-05-15T15:01:18.328Z,50.21
2019-05-15T15:03:50.561Z,51.03
2019-05-15T15:06:23.303Z,50.61
2019-05-15T15:08:55.540Z,51.36
2019-05-15T15:11:28.554Z,51.17
2019-05-15T15:14:00.114Z,52.28
2019-05-15T15:16:32.490Z,53.15
2019-05-15T15:19:05.633Z,52.50
2019-05-15T15:21:38.665Z,52.99
2019-05-15T15:24:11.458Z,52.71
2019-05-15T15:26:43.444Z,52.47
2019-05-15T15:29:19.020Z,53.08
2019-05-15T15:31:51.843Z,53.35
2019-05-15T15:34:28.255Z,53.18
2019-05-15T15:37:02.000Z,54.34
2019-05-15T15:39:34.902Z,54.28
2019-05-15T15:42:08.612Z,55.35
2019-05-15T15:44:41.482Z,54.82
2019-05-15T15:47:14.070Z,55.12
2019-05-15T15:49:47.916Z,55.51
2019-05-15T15:52:20.469Z,55.85
2019-05-15T15:54:52.278Z,55.51
2019-05-15T15:57:24.983Z,55.99
2019-05-15T15:59:57.126Z,56.42
2019-05-15T16:02:30.147Z,56.07
2019-05-15T16:05:01.231Z,56.58
2019-05-15T16:07:37.807Z,56.27
2019-05-15T16:10:11.185Z,56.96
2019-05-15T16:12:43.462Z,57.96
2019-05-15T16:15:17.989Z,59.08
2019-05-15T16:17:50.937Z,59.05
2019-05-15T16:20:22.900Z,58.58
2019-05-15T16:22:56.090Z,58.46
2019-05-15T16:25:28.925Z,58.21
2019-05-15T16:28:02.587Z,58.46
2019-05-15T16:30:48.125Z,58.27
2019-05-15T16:33:10.554Z,58.75
2019-05-15T16:35:41.920Z,58.34
2019-05-15T16:38:14.012Z,58.49
2019-05-15T16:40:46.207Z,58.24
2019-05-15T16:43:20.554Z,58.35
2019-05-15T16:45:58.442Z,57.90
2019-05-15T16:48:31.329Z,58.98
2019-05-15T16:51:05.615Z,58.88
2019-05-15T16:53:38.399Z,60.11
2019-05-15T16:56:11.334Z,59.21
2019-05-15T16:58:43.058Z,59.39
2019-05-15T17:01:18.484Z,58.99
2019-05-15T17:03:52.237Z,59.19
2019-05-15T17:06:27.940Z,60.16
2019-05-15T17:09:00.402Z,59.62
2019-05-15T17:11:38.380Z,59.63
2019-05-15T17:14:11.151Z,59.83
2019-05-15T17:16:43.786Z,60.50
2019-05-15T17:19:18.064Z,60.14
2019-05-15T17:21:51.742Z,59.39
2019-05-15T17:24:24.982Z,60.33
2019-05-15T17:26:59.576Z,60.34
2019-05-15T17:29:43.090Z,61.06
2019-05-15T17:32:32.634Z,60.77
2019-05-15T17:35:09.896Z,60.90
2019-05-15T17:37:42.504Z,60.60
2019-05-15T17:40:17.841Z,61.05
2019-05-15T17:42:50.449Z,62.04
2019-05-15T17:45:23.144Z,62.00
2019-05-15T17:47:58.493Z,62.10
2019-05-15T17:50:45.045Z,62.00
2019-05-15T17:53:07.788Z,61.85
2019-05-15T17:55:41.218Z,61.58
2019-05-15T17:58:13.025Z,62.08
2019-05-15T18:00:48.632Z,62.03
2019-05-15T18:03:23.048Z,62.19
2019-05-15T18:05:59.454Z,62.31
2019-05-15T18:08:34.522Z,62.73
2019-05-15T18:11:08.066Z,62.28
2019-05-15T18:13:41.251Z,63.16
2019-05-15T18:16:14.016Z,63.73
2019-05-15T18:18:48.158Z,64.04
2019-05-15T18:24:09.158Z,63.25
2019-05-15T18:26:41.562Z,64.01
2019-05-15T18:29:14.445Z,63.60
2019-05-15T18:31:48.037Z,64.21
2019-05-15T18:34:20.736Z,63.95
2019-05-15T18:36:52.879Z,63.66
2019-05-15T18:39:28.709Z,64.69
2019-05-15T18:42:01.471Z,64.56
2019-05-15T18:44:38.985Z,65.16
2019-05-15T18:47:11.467Z,65.54
2019-05-15T18:50:00.405Z,65.29
2019-05-15T18:52:25.085Z,65.19
2019-05-15T18:54:58.686Z,64.69
2019-05-15T18:57:32.821Z,65.51
2019-05-15T19:00:08.911Z,65.25
2019-05-15T19:02:41.446Z,65.65
2019-05-15T19:05:15.573Z,65.99
2019-05-15T19:07:49.075Z,65.77
2019-05-15T19:10:22.731Z,65.62
2019-05-15T19:12:57.914Z,66.11
2019-05-15T19:15:30.788Z,66.87
2019-05-15T19:18:04.718Z,65.96
2019-05-15T19:20:39.174Z,66.96
2019-05-15T19:23:12.301Z,66.08
2019-05-15T19:25:44.968Z,66.44
2019-05-15T19:28:19.208Z,65.64
2019-05-15T19:30:52.671Z,64.95
2019-05-15T19:33:34.548Z,66.06
2019-05-15T19:35:57.332Z,66.48
2019-05-15T19:38:29.557Z,66.46
2019-05-15T19:41:06.128Z,67.01
2019-05-15T19:43:38.464Z,67.19
2019-05-15T19:46:11.932Z,66.69
2019-05-15T19:48:43.545Z,66.04
2019-05-15T19:51:18.155Z,66.49
2019-05-15T19:53:51.101Z,67.54
2019-05-15T19:56:30.716Z,67.35
2019-05-15T19:59:03.492Z,67.38
2019-05-15T20:01:38.238Z,66.47
2019-05-15T20:04:11.088Z,66.77
2019-05-15T20:06:45.435Z,66.49
2019-05-15T20:09:18.382Z,66.71
2019-05-15T20:11:53.172Z,67.06
2019-05-15T20:14:28.942Z,66.54
2019-05-15T20:17:08.098Z,66.27
2019-05-15T20:19:40.789Z,66.80
2019-05-15T20:22:14.554Z,66.83
2019-05-15T20:24:47.683Z,66.33
2019-05-15T20:27:20.162Z,66.08
2019-05-15T20:29:53.137Z,66.95
2019-05-15T20:32:28.040Z,66.46
2019-05-15T20:35:01.008Z,66.34
2019-05-15T20:37:38.661Z,67.60
2019-05-15T20:40:11.509Z,69.08
2019-05-15T20:42:48.308Z,69.04
2019-05-15T20:45:20.922Z,70.22
2019-05-15T20:47:54.639Z,69.26
2019-05-15T20:50:28.276Z,68.95
2019-05-15T20:53:01.305Z,68.55
2019-05-15T20:55:33.418Z,68.57
2019-05-15T20:58:08.012Z,68.86
2019-05-15T21:00:44.182Z,68.59
2019-05-15T21:03:17.927Z,68.99
2019-05-15T21:05:50.661Z,69.17
2019-05-15T21:08:24.305Z,68.30
2019-05-15T21:10:58.811Z,70.48
2019-05-15T21:13:32.187Z,69.49
2019-05-15T21:16:07.825Z,69.14
2019-05-15T21:18:41.512Z,70.83
2019-05-15T21:21:14.666Z,70.35
2019-05-15T21:23:49.009Z,70.81
2019-05-15T21:26:24.195Z,69.75
2019-05-15T21:28:58.728Z,70.46
2019-05-15T21:31:33.622Z,69.46
2019-05-15T21:34:08.418Z,68.94
2019-05-15T21:36:42.118Z,70.89
2019-05-15T21:39:16.361Z,71.35
2019-05-15T21:41:49.067Z,72.00
2019-05-15T21:44:21.871Z,73.07
2019-05-15T21:46:58.608Z,73.06
2019-05-15T21:49:32.018Z,74.39
2019-05-15T21:52:06.644Z,73.69
2019-05-15T21:54:39.294Z,73.02
2019-05-15T21:57:29.361Z,75.27
2019-05-15T21:59:46.657Z,77.55
2019-05-15T22:02:20.598Z,74.34
2019-05-15T22:04:56.108Z,74.19
2019-05-15T22:07:28.571Z,76.52
2019-05-15T22:10:01.792Z,76.09
2019-05-15T22:12:32.940Z,76.90
2019-05-15T22:15:05.698Z,76.22
2019-05-15T22:17:39.158Z,76.58
2019-05-15T22:20:12.689Z,77.45
2019-05-15T22:22:45.250Z,76.95
2019-05-15T22:25:19.267Z,77.03
2019-05-15T22:27:51.702Z,78.94
2019-05-15T22:30:24.752Z,77.91
2019-05-15T22:32:58.790Z,77.22
2019-05-15T22:35:32.689Z,76.67
2019-05-15T22:38:05.101Z,77.34
2019-05-15T22:40:39.455Z,77.40
2019-05-15T22:43:13.487Z,78.39
2019-05-15T22:45:48.317Z,79.03
2019-05-15T22:48:21.675Z,77.88
2019-05-15T22:50:54.883Z,77.35
2019-05-15T22:53:28.697Z,78.65
2019-05-15T22:56:00.740Z,77.75
2019-05-15T22:58:33.405Z,78.88
2019-05-15T23:01:09.064Z,78.09
2019-05-15T23:03:47.726Z,78.29
2019-05-15T23:06:20.204Z,78.57
2019-05-15T23:08:54.514Z,79.66
2019-05-15T23:11:29.698Z,80.32
2019-05-15T23:14:02.757Z,81.12
2019-05-15T23:16:35.270Z,80.34
2019-05-15T23:19:08.290Z,80.42
2019-05-15T23:21:40.637Z,79.17
2019-05-15T23:24:13.859Z,78.07
2019-05-15T23:26:47.749Z,77.93
2019-05-15T23:29:20.455Z,79.24
2019-05-15T23:31:54.455Z,79.33
2019-05-15T23:34:30.304Z,79.14
2019-05-15T23:37:03.197Z,79.10
2019-05-15T23:39:35.568Z,79.17
2019-05-15T23:42:08.869Z,78.51
2019-05-15T23:44:41.557Z,77.89
2019-05-15T23:47:13.615Z,79.12
2019-05-15T23:49:48.509Z,78.59
2019-05-15T23:52:21.212Z,78.46
2019-05-15T23:54:54.923Z,78.57
2019-05-15T23:57:28.810Z,79.06
